Date,TemperatureHighF,TemperatureAvgF,TemperatureLowF,DewpointHighF,DewpointAvgF,DewpointLowF,HumidityHigh,HumidityAvg,HumidityLow,PressureMaxIn,PressureMinIn,WindSpeedMaxMPH,WindSpeedAvgMPH,GustSpeedMaxMPH,PrecipitationSumIn
2014-1-1,13,7,2,2,-1,-6,80,70,48,30.43,29.91,11,1,22,0.00
2014-1-2,6,-6,-16,0,-12,-22,80,76,71,30.40,29.91,0,0,14,0.00
2014-1-3,21,10,-16,7,2,-21,79,70,63,30.37,29.79,29,8,49,0.00
2014-1-4,30,24,16,26,18,6,87,79,62,30.03,29.68,19,5,30,0.00
2014-1-5,20,17,10,15,11,5,83,77,66,30.13,29.82,11,1,31,0.00
2014-1-6,11,5,-2,5,0,-7,84,81,74,29.92,29.74,24,7,39,0.00
2014-1-7,9,6,5,4,2,-1,84,83,80,30.14,29.91,14,4,34,0.00
2014-1-8,19,10,7,7,6,-2,86,82,77,30.44,29.91,11,2,35,0.00
2014-1-9,19,13,7,9,6,1,86,76,62,30.51,30.20,10,2,35,0.00
2014-1-10,36,27,14,33,24,8,89,86,78,30.20,29.55,12,4,19,0.02
2014-1-11,39,34,31,36,31,27,89,88,84,29.58,29.28,18,6,24,0.10
2014-1-12,43,35,30,30,27,19,86,73,56,29.77,29.55,23,6,25,0.00
2014-1-13,39,36,30,37,31,27,88,82,69,29.64,29.45,17,4,31,0.02
2014-1-14,37,28,22,27,23,13,88,81,70,29.76,29.63,15,2,22,0.00
2014-1-15,22,18,15,19,13,8,88,81,73,29.92,29.64,18,3,31,0.04
2014-1-16,26,23,21,20,18,14,87,82,77,29.91,29.50,25,6,34,0.00
2014-1-17,29,23,18,25,19,14,92,86,80,29.82,29.55,6,0,15,0.00
2014-1-18,27,20,14,20,16,2,88,82,66,29.84,29.67,7,1,17,0.00
2014-1-19,29,23,15,27,19,10,92,84,79,29.72,29.36,19,6,31,0.00
2014-1-20,18,9,4,10,2,-4,84,73,54,30.11,29.57,16,1,24,0.00
2014-1-21,12,0,-17,-1,-7,-22,80,70,52,30.27,29.91,11,1,15,0.00
2014-1-22,12,8,3,5,2,-4,83,77,70,30.16,29.81,12,3,31,0.00
2014-1-23,9,3,-4,1,-3,-14,83,74,62,30.44,29.91,17,2,24,0.00
2014-1-24,21,14,2,17,10,-2,88,83,73,30.33,29.22,22,6,40,0.02
2014-1-25,27,10,4,21,3,-6,89,74,61,29.91,29.17,28,10,37,0.00
2014-1-26,14,9,4,10,4,-4,86,79,69,29.92,29.24,16,4,34,0.00
2014-1-27,10,4,-1,6,-1,-5,85,83,80,30.14,29.38,23,8,38,0.00
2014-1-28,7,5,2,3,0,-3,84,80,74,30.15,29.89,17,7,33,0.00
2014-1-29,16,11,6,8,5,1,85,77,69,30.01,29.84,15,6,36,0.00
2014-1-30,28,23,15,22,17,8,88,78,60,29.92,29.53,30,7,48,0.00
2014-1-31,21,14,7,12,8,2,85,79,67,30.10,29.74,14,2,31,0.00
2014-2-1,21,14,9,16,10,2,86,84,81,30.10,29.90,8,1,14,0.00
2014-2-2,18,14,10,18,9,0,88,80,69,30.27,29.91,14,2,22,0.00
2014-2-3,20,14,5,9,7,4,82,74,59,30.34,30.25,16,2,36,0.00
2014-2-4,28,14,2,16,8,-2,86,77,57,30.43,30.30,14,1,31,0.00
2014-2-5,20,10,5,8,3,-1,80,73,65,30.37,30.19,17,2,24,0.00
2014-2-6,13,8,3,8,2,-4,83,77,69,30.36,30.12,16,3,38,0.00
2014-2-7,19,11,6,7,4,-2,81,75,69,30.14,29.91,19,6,36,0.00
2014-2-8,21,10,0,8,3,-5,82,72,53,30.22,30.11,13,1,28,0.00
2014-2-9,22,13,7,12,7,-2,85,76,56,30.17,30.01,13,2,19,0.00
2014-2-10,10,5,-6,2,-2,-12,83,74,62,30.40,30.12,13,3,22,0.00
2014-2-11,18,3,-16,3,-7,-22,82,64,49,30.48,29.84,10,1,19,0.00
2014-2-12,21,15,1,15,9,-1,83,78,74,29.88,29.55,16,5,28,0.00
2014-2-13,28,23,18,18,13,3,86,68,46,29.91,29.49,20,4,26,0.00
2014-2-14,25,17,-2,20,12,-7,87,83,76,29.89,29.45,20,4,30,0.00
2014-2-15,20,9,-2,5,2,-7,86,72,55,30.08,29.86,12,2,16,0.00
2014-2-16,22,9,-10,10,2,-16,85,72,55,30.37,29.90,13,2,18,0.00
2014-2-17,25,13,-12,11,2,-17,84,63,43,30.38,29.77,21,5,74,0.00
2014-2-18,37,24,6,25,16,2,86,74,57,29.87,29.59,12,2,26,0.00
2014-2-19,42,32,22,28,23,15,92,71,45,29.95,29.53,16,3,43,0.10
2014-2-20,42,33,25,31,25,18,87,74,44,30.00,29.26,22,5,39,0.00
2014-2-21,38,29,20,34,24,16,88,82,74,29.53,29.16,26,10,74,0.02
2014-2-22,26,21,17,17,14,12,87,76,65,29.92,29.53,21,7,38,0.00
2014-2-23,20,15,10,13,9,1,81,76,68,30.06,29.84,16,4,34,0.00
2014-2-24,18,8,-5,5,0,-10,83,72,59,30.15,29.91,24,8,32,0.00
2014-2-25,14,3,-9,10,-2,-16,84,77,66,30.13,29.89,19,4,32,0.00
2014-2-26,11,7,-2,6,0,-9,85,74,61,30.04,29.47,26,7,40,0.00
2014-2-27,8,-5,-25,3,-13,-31,83,67,53,30.23,29.46,28,7,40,0.00
2014-2-28,15,-1,-30,6,-10,-35,83,66,48,30.24,29.91,12,4,33,0.00
2014-3-1,18,8,-2,10,-1,-18,84,67,57,30.38,29.92,17,5,23,0.00
2014-3-2,6,-3,-14,0,-12,-21,77,66,53,30.43,29.91,15,2,28,0.00
2014-3-3,14,0,-26,3,-10,-32,82,63,43,30.47,29.91,12,2,30,0.00
2014-3-4,21,11,-5,12,5,-10,84,78,65,30.32,30.17,18,1,27,0.00
2014-3-5,26,8,-16,10,-2,-21,80,64,45,30.58,29.91,10,1,15,0.02
2014-3-6,31,22,1,10,4,-5,80,48,28,30.56,29.91,11,5,22,0.00
2014-3-7,44,30,18,28,20,4,87,67,51,30.10,29.77,18,5,24,0.00
2014-3-8,27,18,1,23,13,-4,87,80,67,30.21,29.96,16,3,22,0.00
2014-3-9,36,23,-4,26,12,-8,82,65,46,30.19,29.68,28,6,45,0.00
2014-3-10,52,38,29,36,30,19,86,73,54,29.70,29.45,16,2,35,0.00
2014-3-11,48,35,25,35,27,15,86,71,58,29.92,29.57,20,1,37,0.00
2014-3-12,26,14,2,18,5,-5,82,67,48,30.12,29.86,18,4,36,0.00
2014-3-13,28,20,-6,18,8,-14,78,62,48,30.12,29.77,13,5,27,0.00
2014-3-14,46,35,24,34,29,18,92,79,60,29.91,29.39,20,5,37,0.08
2014-3-15,32,18,8,28,12,0,88,76,67,30.37,29.63,34,8,47,0.00
2014-3-16,19,8,-8,2,-5,-15,73,55,41,30.52,29.91,12,2,19,0.00
2014-3-17,29,17,-10,17,3,-19,79,55,34,30.28,29.91,13,4,18,0.00
2014-3-18,45,32,19,28,18,9,71,58,46,30.01,29.93,11,3,30,0.00
2014-3-25,11,5,1,0,-3,-6,76,69,61,30.17,30.10,4,0,14,0.00
2014-3-26,30,14,-6,18,3,-11,79,63,45,30.26,29.91,16,1,20,0.00
2014-3-27,37,32,25,32,26,13,88,80,57,30.08,29.56,18,5,24,0.16
2014-3-28,39,32,24,34,28,19,88,85,79,30.29,29.47,22,4,27,0.04
2014-3-29,44,30,19,28,21,15,87,70,45,30.33,30.23,15,1,28,0.00
2014-3-30,56,34,12,28,19,9,86,58,31,30.28,29.75,8,1,18,0.00
2014-3-31,58,42,24,33,28,14,86,61,36,30.09,29.77,19,4,61,0.00
2014-4-1,49,38,28,38,29,17,83,71,50,29.98,29.61,24,8,35,0.02
2014-4-2,38,28,20,22,18,15,82,68,50,30.29,29.90,24,7,69,0.00
2014-4-3,42,31,18,27,22,14,86,70,54,30.30,29.89,11,2,22,0.00
2014-4-4,37,34,25,32,28,21,88,79,61,29.95,29.36,30,5,33,0.39
2014-4-5,38,30,22,26,19,14,87,66,38,30.16,29.71,24,6,34,0.00
2014-4-6,56,42,30,36,26,19,68,54,36,30.13,29.98,12,3,32,0.00
2014-4-7,66,45,31,34,28,19,81,54,24,30.01,29.62,13,1,20,0.00
2014-4-8,49,39,31,39,30,20,85,72,59,29.92,29.60,24,4,34,0.00
2014-4-9,51,38,22,30,25,18,87,61,41,29.99,29.74,17,3,31,0.00
2014-4-10,55,49,32,45,34,21,85,57,41,29.90,29.56,18,5,35,0.00
2014-4-11,58,41,28,32,27,20,85,62,31,30.06,29.90,16,1,34,0.04
2014-4-12,46,38,29,38,33,26,87,83,71,30.14,29.86,14,1,26,0.10
2014-4-13,51,43,39,46,39,35,87,86,82,29.89,29.67,12,1,20,0.41
2014-4-14,41,32,23,37,28,16,88,86,81,29.95,29.42,19,2,31,1.22
2014-4-15,28,23,20,20,14,9,88,69,56,30.23,29.91,23,6,34,0.00
2014-4-16,44,29,11,28,19,8,88,70,38,30.42,30.23,16,2,74,0.00
2014-4-17,54,41,33,34,26,19,84,57,43,30.39,30.21,17,5,62,0.00
2014-4-18,39,34,26,30,27,20,87,78,64,30.47,30.28,16,2,20,0.00
2014-4-19,59,41,22,37,27,19,87,62,33,30.54,30.32,12,4,21,0.00
2014-4-20,59,50,42,49,38,29,86,65,46,30.32,30.07,20,2,35,0.07
2014-4-21,56,49,42,51,45,35,87,87,83,30.08,29.78,10,0,20,0.21
2014-4-22,46,36,33,42,31,23,87,84,77,30.07,29.82,24,9,36,0.03
2014-4-23,57,38,26,28,24,14,88,63,33,30.21,30.06,18,2,21,0.03
2014-4-24,56,41,26,32,24,17,85,55,30,30.20,29.92,15,3,26,0.00
2014-4-25,54,42,36,40,32,19,87,72,37,29.94,29.73,11,2,32,0.19
2014-4-26,48,37,30,39,32,25,87,81,60,30.20,29.79,14,3,44,0.04
2014-4-27,55,41,26,32,26,22,87,59,38,30.29,30.16,13,3,30,0.00
2014-4-28,57,48,41,31,27,17,56,43,32,30.21,29.93,22,7,36,0.00
2014-4-29,53,47,34,48,39,30,87,76,51,29.95,29.65,15,3,27,0.82
2014-4-30,59,52,46,53,48,39,87,85,78,29.81,29.76,22,2,24,0.16
2014-5-1,55,45,39,46,39,34,88,80,65,29.76,29.68,20,2,30,0.00
2014-5-2,45,42,35,42,38,33,88,87,83,29.76,29.68,14,2,35,0.00
2014-5-3,46,42,34,45,39,24,88,88,80,29.84,29.64,18,3,26,0.24
2014-5-4,47,40,33,37,34,30,88,80,66,30.14,29.82,21,6,26,0.00
2014-5-5,55,42,34,42,36,30,88,78,58,30.16,30.05,14,1,22,0.00
2014-5-6,63,45,26,39,31,17,88,62,37,30.19,30.08,13,2,33,0.00
2014-5-7,59,49,42,41,34,26,70,56,45,30.16,30.01,17,4,31,0.00
2014-5-8,79,63,48,63,53,36,85,70,56,30.02,29.80,25,3,37,0.00
2014-5-9,72,65,53,62,57,38,87,76,61,29.80,29.58,59,5,59,0.00
2014-5-10,65,54,41,45,39,33,79,59,34,30.01,29.73,23,6,35,0.00
2014-5-11,79,59,40,50,42,34,83,56,27,30.08,29.97,12,1,35,0.00
2014-5-12,61,55,51,55,48,36,87,77,56,30.07,29.86,10,1,22,0.00
2014-5-13,70,58,46,63,53,42,87,85,77,30.10,29.80,16,2,32,0.00
2014-5-14,62,51,46,46,42,30,88,72,50,30.23,30.09,12,1,38,0.00
2014-5-15,46,39,34,39,35,30,88,85,53,30.15,29.83,17,4,28,0.00
2014-5-16,46,38,32,36,32,29,88,79,61,30.08,29.96,17,6,28,0.00
2014-5-17,57,51,42,36,31,28,71,47,35,30.11,30.06,15,3,32,0.07
2014-5-18,70,59,44,43,37,25,74,47,31,30.18,30.09,16,3,33,0.00
2014-5-19,73,60,45,50,43,36,76,54,39,30.26,30.09,16,2,28,0.00
2014-5-20,59,54,50,53,48,36,87,81,64,30.13,29.89,15,4,28,0.29
2014-5-21,80,58,41,60,49,37,88,73,38,29.95,29.82,20,2,37,0.79
2014-5-22,59,49,44,47,43,34,88,80,58,30.14,29.95,17,5,29,0.79
2014-5-23,69,50,37,50,43,40,87,78,44,30.22,30.12,17,3,32,0.00
2014-5-24,76,58,37,54,44,34,88,64,33,30.27,30.15,13,1,22,0.08
2014-5-25,80,62,45,54,47,41,87,62,35,30.17,30.06,14,2,32,0.00
2014-5-26,79,74,66,67,64,60,86,74,65,29.99,29.89,11,2,31,0.00
2014-5-27,79,66,50,64,55,41,87,71,43,29.99,29.84,13,1,87,0.00
2014-5-28,76,61,45,56,48,40,87,67,46,30.14,29.99,14,1,28,0.00
2014-5-29,83,62,42,60,51,34,87,70,38,30.22,30.12,12,1,29,0.00
2014-5-30,82,66,49,62,54,45,88,68,43,30.23,30.16,11,1,26,0.00
2014-5-31,88,72,53,58,50,46,87,51,28,30.30,30.11,14,2,29,0.00
2014-6-1,90,74,64,63,54,45,79,52,35,30.14,29.85,18,3,31,0.00
2014-6-2,84,71,66,71,64,59,86,80,60,29.94,29.68,17,3,33,0.00
2014-6-3,69,64,52,64,55,46,84,72,57,29.91,29.66,28,5,49,0.00
2014-6-4,72,59,44,53,46,40,87,66,41,29.95,29.88,14,2,54,0.00
2014-6-5,73,57,39,52,45,35,87,67,43,30.04,29.88,14,1,32,0.00
2014-6-6,80,62,41,60,49,37,88,66,39,30.06,29.96,12,1,32,0.00
2014-6-7,83,66,47,61,52,36,88,64,41,30.06,29.93,11,1,34,0.00
2014-6-8,73,61,45,57,49,37,87,68,38,30.09,29.92,16,2,29,0.00
2014-6-9,80,60,37,56,46,34,88,64,34,30.11,29.97,11,1,29,0.00
2014-6-10,82,64,43,60,49,39,88,63,37,30.06,29.95,6,0,24,0.00
2014-6-11,67,62,57,61,55,49,87,80,68,29.95,29.77,5,0,22,0.00
2014-6-12,77,65,57,66,58,48,92,79,62,29.77,29.68,13,1,32,0.00
2014-6-13,58,52,40,48,44,36,87,75,62,30.04,29.74,23,5,47,0.00
2014-6-14,74,53,33,54,43,30,89,72,45,30.17,29.91,9,1,30,0.00
2014-6-15,82,67,55,61,52,44,87,61,36,30.15,29.83,20,5,30,0.00
2014-6-16,86,72,60,65,59,51,88,66,36,30.01,29.87,14,1,65,0.00
2014-6-17,75,65,59,66,60,54,89,83,70,29.95,29.71,17,2,24,0.91
2014-6-18,72,64,56,67,60,51,89,86,81,30.09,29.90,4,0,21,0.02
2014-6-19,77,67,51,59,52,36,89,62,39,30.22,30.09,0,0,3,0.00
2014-6-20,66,59,46,55,46,32,83,63,48,30.16,29.96,0,0,3,0.42
2014-6-21,79,64,49,60,52,44,88,67,42,30.03,29.91,0,0,3,0.00
2014-6-22,82,69,53,67,59,50,86,71,55,29.94,29.83,0,0,3,0.04
2014-6-23,79,68,56,69,62,51,88,82,67,29.90,29.83,0,0,3,0.01
2014-6-24,79,69,61,70,63,54,92,82,68,29.93,29.83,0,0,3,0.03
2014-6-25,70,63,60,61,58,55,88,82,69,30.05,29.93,0,0,3,0.04
2014-6-26,82,68,52,65,58,51,88,72,52,30.09,30.04,0,0,3,0.36
2014-6-27,83,73,51,66,60,47,88,66,50,30.11,30.03,0,0,3,0.40
2014-6-28,92,74,65,74,63,58,82,69,48,30.08,30.00,0,0,3,0.40
2014-6-29,82,75,71,73,68,65,87,78,61,30.01,29.83,0,0,22,0.40
2014-6-30,78,72,68,71,67,64,87,83,77,29.86,29.55,8,0,28,0.02
2014-7-1,80,73,67,68,63,60,87,72,60,29.91,29.52,13,3,31,0.02
2014-7-2,68,60,45,62,54,41,88,79,59,30.01,29.67,12,1,26,0.10
2014-7-3,75,57,39,56,47,34,88,72,48,30.18,30.00,11,1,28,0.00
2014-7-4,77,60,40,56,46,36,88,65,38,30.33,30.17,18,1,32,0.04
2014-7-5,80,65,44,59,51,35,88,64,44,30.29,30.00,17,2,32,0.03
2014-7-6,76,67,62,68,61,54,87,80,67,30.01,29.61,15,1,36,0.20
2014-7-7,82,72,60,67,63,54,88,74,51,29.66,29.55,18,3,32,0.15
2014-7-8,69,60,51,63,56,48,88,86,77,29.79,29.51,35,3,51,0.06
2014-7-9,68,58,48,57,51,44,89,78,62,30.07,29.79,13,2,29,0.00
2014-7-10,77,59,40,59,48,36,88,69,45,30.21,30.07,13,1,28,0.01
2014-7-11,82,65,45,66,55,41,88,72,53,30.22,30.11,10,1,25,0.02
2014-7-12,82,71,63,70,62,51,87,74,63,30.12,29.83,8,1,29,0.27
2014-7-13,75,66,51,64,58,47,87,77,51,29.89,29.76,14,2,37,0.42
2014-7-14,81,64,49,61,53,45,88,71,40,29.88,29.78,12,1,30,0.00
2014-7-15,60,56,54,56,52,50,88,87,83,29.89,29.75,12,3,22,0.47
2014-7-16,72,61,50,58,52,46,88,75,51,30.05,29.83,15,2,33,0.00
2014-7-17,79,61,41,58,49,38,88,68,40,30.11,30.01,11,1,30,0.00
2014-7-18,84,66,51,61,54,48,87,67,39,30.22,30.11,9,0,18,0.00
2014-7-19,84,66,48,63,54,44,88,70,41,30.15,30.04,9,0,18,0.00
2014-7-20,86,68,53,65,58,49,87,71,47,30.08,30.02,9,0,29,0.00
2014-7-21,88,72,55,70,61,51,87,72,51,30.09,30.03,10,1,30,0.00
2014-7-22,92,74,62,74,66,51,86,76,61,30.06,29.82,16,3,30,0.00
2014-7-23,73,63,50,59,54,45,87,75,53,30.17,30.01,13,1,44,0.01
2014-7-24,76,59,39,57,48,37,87,70,44,30.20,30.04,10,1,26,0.14
2014-7-25,79,62,43,63,52,33,87,72,55,30.05,29.88,13,2,31,0.00
2014-7-26,81,69,60,69,62,56,87,78,63,29.92,29.72,11,1,34,0.00
2014-7-27,77,64,55,72,59,51,87,84,68,29.86,29.65,7,0,31,0.68
2014-7-28,69,59,52,55,50,45,87,73,54,30.06,29.86,17,2,35,0.20
2014-7-29,72,61,52,61,54,48,88,80,60,29.99,29.94,15,2,59,0.00
2014-7-30,73,59,44,59,50,40,88,75,49,30.04,29.97,10,1,35,0.00
2014-7-31,79,64,48,60,53,44,88,71,44,30.06,29.91,13,2,34,0.02
2014-8-1,90,74,47,65,56,44,88,57,37,30.13,29.91,10,1,35,0.00
2014-8-2,86,68,51,66,57,47,87,71,45,30.18,30.11,8,1,34,0.00
2014-8-3,88,67,51,66,58,47,87,74,46,30.15,30.06,10,1,32,0.00
2014-8-4,82,68,53,62,56,49,87,70,42,30.15,30.09,9,1,32,0.00
2014-8-5,84,67,52,61,54,47,87,67,38,30.14,30.08,12,1,35,0.00
2014-8-6,83,64,44,62,52,33,88,68,37,30.13,30.06,12,1,34,0.00
2014-8-7,90,67,47,63,54,36,88,66,36,30.19,30.11,15,1,30,0.00
2014-8-8,87,70,54,62,56,49,87,65,40,30.21,30.13,9,1,35,0.00
2014-8-9,88,69,50,66,58,46,88,69,42,30.24,30.15,8,0,28,0.00
2014-8-10,90,69,52,64,57,48,87,68,35,30.19,30.04,10,1,23,0.00
2014-8-11,80,70,58,68,62,54,87,77,63,30.07,29.80,10,0,28,0.00
2014-8-12,66,61,56,61,56,52,88,87,83,29.88,29.69,13,3,32,0.71
2014-8-13,73,61,51,57,52,45,88,74,50,30.08,29.88,15,2,31,0.16
2014-8-14,74,54,39,50,44,36,88,70,45,30.12,30.03,17,3,33,0.16
2014-8-15,76,58,40,56,46,36,88,67,39,30.07,29.91,13,2,31,0.00
2014-8-16,72,64,55,65,58,50,87,80,67,29.99,29.79,12,2,34,0.68
2014-8-17,74,62,50,62,55,41,87,80,64,30.09,29.98,4,0,29,0.03
2014-8-18,79,64,49,64,56,45,87,78,63,30.06,29.81,6,1,30,0.12
2014-8-19,81,69,63,70,63,58,87,81,65,29.81,29.70,10,1,31,0.00
2014-8-20,74,65,62,64,61,51,87,86,78,29.98,29.75,9,1,33,0.02
2014-8-21,81,68,61,67,61,51,87,79,56,30.04,29.97,6,0,40,0.00
2014-8-22,83,71,62,71,65,58,87,81,63,30.07,29.97,8,0,19,0.68
2014-8-23,90,74,60,69,64,53,87,74,57,30.14,30.07,8,1,34,0.00
2014-8-24,80,70,60,67,63,52,87,78,62,30.17,30.08,12,2,33,0.79
2014-8-25,84,73,66,74,67,55,87,83,71,30.11,29.97,10,2,23,0.00
2014-8-26,77,70,54,68,61,50,87,76,58,30.13,29.99,12,1,31,0.20